메인 페이지
METAR-TAF:

METAR-TAF

공항 :

물탄 국제공항

물탄, 파키스탄

위도: 30-12-12N, 경도: 71-25-09E, 고도: 122m

현재 날씨관측

예보는 45분 전, 22:30시(UTC)에 발표되었습니다.
북동10kt
온도 28°C
습도 51%
기압 1007 hPa
시정: 2500m
고도 12000ft 상공 구름 조금
낮은 날린먼지

METAR: OPMT 232230Z 05010KT 2500 DRDU FEW120 28/17 Q1007 TEMPO 36015G25KT 2000 BLDU

시각: 04:15 (23:15 UTC)

예보

예보는 7 시간 15분 전, 16:00시(UTC)에 발표되었습니다.
예보 대상 시간: 23일 18시부터 24일 12시까지 (UTC)
남서10kt
시정: 4000m
고도 4000ft 상공 구름 보통
고도 10000ft 상공 구름 보통
낮은 날린먼지
확률 30% :
일시적
23일 18시부터 23일 22시까지 (UTC)
북서30kt
시정: 0800m
고도 10000ft 상공 구름 보통
일시적
24일 06시부터 24일 10시까지 (UTC)
남서16kt
시정: 3000m
고도 10000ft 상공 구름 보통
낮은 날린먼지

TAF: OPMT 231600Z 2318/2412 23010KT 4000 DRDU SCT040 SCT100 TN24/2410Z TX39/2410Z PROB30 TEMPO 2318/2322 31030KT 0800 DSTS FEW030CBSCT040 SCT100 TEMPO 2406/2410 23016KT 3000 DRDU SCT100

4,000개 이상의 공항 관측 자료 및 예보 (METAR 및 TAF 보고).

지도상에서 검색 가능한 기상관측소가 노란 점과 빨간 점으로 표시되어 있습니다.

기상관측소 명을 보려면 표시 위로 마우스를 이동하세요.

날씨 관측과 예보를 보려면 클릭하세요.

지도 변경 : 확대하려면 엑스 표시가 있는 녹색 버튼, 축소하려면 빼기 표시가 있는 녹색 버튼, 다음 페이지의 지도를 보려면 녹색 화살표를 클릭하세요.


METAR-TAF: